createdAt,value
2023-02-15T00:00:51.857Z,27.30
2023-02-15T00:01:51.860Z,26.70
2023-02-15T00:02:51.819Z,27.00
2023-02-15T00:03:51.785Z,27.60
2023-02-15T00:04:51.797Z,27.30
2023-02-15T00:05:51.773Z,27.00
2023-02-15T00:06:51.756Z,28.30
2023-02-15T00:07:51.735Z,27.70
2023-02-15T00:08:51.725Z,27.40
2023-02-15T00:09:51.725Z,27.50
2023-02-15T00:10:51.705Z,27.40
2023-02-15T00:11:51.692Z,28.50
2023-02-15T00:12:51.668Z,27.20
2023-02-15T00:13:51.666Z,28.30
2023-02-15T00:14:51.666Z,27.10
2023-02-15T00:15:51.630Z,28.70
2023-02-15T00:16:51.628Z,27.30
2023-02-15T00:17:51.623Z,26.80
2023-02-15T00:18:51.585Z,26.40
2023-02-15T00:19:51.621Z,27.00
2023-02-15T00:20:51.575Z,29.20
2023-02-15T00:21:51.547Z,28.40
2023-02-15T00:22:51.539Z,28.40
2023-02-15T00:23:51.539Z,28.40
2023-02-15T00:24:51.525Z,28.40
2023-02-15T00:25:51.488Z,28.70
2023-02-15T00:26:51.525Z,29.10
2023-02-15T00:27:51.465Z,29.70
2023-02-15T00:28:51.466Z,28.20
2023-02-15T00:29:51.511Z,28.50
2023-02-15T00:30:51.487Z,30.10
2023-02-15T00:31:51.428Z,28.80
2023-02-15T00:32:51.428Z,29.10
2023-02-15T00:33:51.389Z,28.00
2023-02-15T00:34:51.417Z,28.30
2023-02-15T00:35:51.355Z,28.50
2023-02-15T00:36:51.361Z,30.40
2023-02-15T00:37:51.337Z,28.70
2023-02-15T00:38:51.335Z,29.60
2023-02-15T00:39:51.323Z,29.00
2023-02-15T00:40:51.296Z,29.50
2023-02-15T00:41:51.286Z,27.70
2023-02-15T00:42:51.277Z,29.30
2023-02-15T00:43:51.254Z,29.80
2023-02-15T00:44:51.266Z,29.60
2023-02-15T00:45:51.282Z,30.10
2023-02-15T00:46:51.227Z,29.10
2023-02-15T00:47:51.209Z,29.20
2023-02-15T00:48:51.199Z,28.80
2023-02-15T00:49:51.189Z,28.70
2023-02-15T00:50:51.168Z,30.50
2023-02-15T00:51:51.150Z,29.30
2023-02-15T00:52:51.150Z,30.20
2023-02-15T00:53:51.126Z,30.00
2023-02-15T00:54:51.134Z,28.90
2023-02-15T00:55:51.125Z,29.30
2023-02-15T00:56:51.087Z,29.80
2023-02-15T00:57:51.073Z,29.80
2023-02-15T00:58:51.059Z,29.30
2023-02-15T00:59:51.067Z,28.90
2023-02-15T01:00:51.049Z,28.10
2023-02-15T01:01:51.016Z,29.40
2023-02-15T01:02:51.014Z,29.30
2023-02-15T01:03:50.990Z,29.60
2023-02-15T01:04:51.016Z,29.00
2023-02-15T01:05:50.974Z,29.20
2023-02-15T01:06:50.958Z,29.80
2023-02-15T01:07:52.553Z,30.30
2023-02-15T01:08:50.930Z,30.40
2023-02-15T01:09:50.942Z,28.90
2023-02-15T01:10:50.940Z,29.10
2023-02-15T01:11:50.901Z,29.80
2023-02-15T01:12:50.900Z,29.90
2023-02-15T01:13:50.864Z,29.80
2023-02-15T01:14:50.863Z,29.80
2023-02-15T01:15:50.873Z,30.30
2023-02-15T01:16:50.823Z,30.50
2023-02-15T01:17:50.812Z,29.80
2023-02-15T01:18:50.809Z,29.60
2023-02-15T01:19:50.791Z,29.90
2023-02-15T01:20:50.789Z,30.80
2023-02-15T01:21:50.781Z,29.70
2023-02-15T01:22:50.757Z,29.60
2023-02-15T01:23:50.752Z,29.80
2023-02-15T01:24:50.744Z,29.40
2023-02-15T01:25:50.721Z,31.20
2023-02-15T01:26:50.693Z,29.20
2023-02-15T01:27:50.685Z,30.60
2023-02-15T01:28:50.682Z,30.80
2023-02-15T01:29:50.683Z,30.80
2023-02-15T01:30:50.771Z,30.30
2023-02-15T01:31:50.751Z,29.60
2023-02-15T01:32:50.643Z,30.00
2023-02-15T01:33:50.610Z,29.80
2023-02-15T01:34:50.627Z,29.50
2023-02-15T01:35:50.576Z,30.10
2023-02-15T01:36:50.563Z,30.10
2023-02-15T01:37:50.553Z,30.90
2023-02-15T01:38:50.568Z,30.90
2023-02-15T01:39:50.545Z,30.40
2023-02-15T01:40:50.543Z,30.00
2023-02-15T01:41:50.493Z,30.00
2023-02-15T01:42:50.497Z,31.20
2023-02-15T01:43:50.497Z,30.40
2023-02-15T01:44:50.511Z,31.40
2023-02-15T01:45:50.465Z,31.20
2023-02-15T01:46:50.438Z,31.20
2023-02-15T01:47:50.438Z,29.90
2023-02-15T01:48:50.413Z,30.70
2023-02-15T01:49:50.420Z,31.60
2023-02-15T01:50:50.397Z,29.90
2023-02-15T01:51:50.367Z,32.10
2023-02-15T01:52:50.359Z,32.80
2023-02-15T01:54:50.390Z,31.60
2023-02-15T01:55:50.319Z,31.10
2023-02-15T01:56:50.301Z,31.60
2023-02-15T01:57:50.301Z,32.20
2023-02-15T01:58:50.289Z,32.10
2023-02-15T01:59:50.279Z,32.00
2023-02-15T02:00:50.255Z,32.90
2023-02-15T02:01:50.245Z,32.10
2023-02-15T02:04:00.034Z,32.60
2023-02-15T02:05:00.031Z,33.10
2023-02-15T02:06:00.326Z,31.80
2023-02-15T02:06:59.988Z,31.70
2023-02-15T02:07:59.972Z,32.10
2023-02-15T02:08:59.971Z,33.00
2023-02-15T02:09:59.956Z,33.40
2023-02-15T02:10:59.948Z,33.10
2023-02-15T02:11:59.920Z,32.30
2023-02-15T02:12:59.917Z,33.10
2023-02-15T02:13:59.906Z,32.70
2023-02-15T02:14:59.919Z,33.00
2023-02-15T02:16:00.255Z,32.70
2023-02-15T02:16:59.859Z,31.40
2023-02-15T02:17:59.834Z,32.40
2023-02-15T02:18:59.827Z,32.50
2023-02-15T02:19:59.845Z,32.60
2023-02-15T02:20:59.808Z,32.60
2023-02-15T02:21:59.790Z,32.80
2023-02-15T02:22:59.795Z,33.00
2023-02-15T02:23:59.769Z,32.60
2023-02-15T02:24:59.775Z,32.90
2023-02-15T02:26:00.103Z,32.30
2023-02-15T02:26:59.735Z,32.50
2023-02-15T02:27:59.710Z,32.50
2023-02-15T02:28:59.697Z,31.90
2023-02-15T02:29:59.777Z,31.40
2023-02-15T02:30:59.751Z,32.40
2023-02-15T02:31:59.688Z,32.30
2023-02-15T02:32:59.657Z,30.60
2023-02-15T02:33:59.625Z,32.50
2023-02-15T02:34:59.627Z,33.30
2023-02-15T02:35:59.801Z,32.50
2023-02-15T02:36:59.610Z,31.50
2023-02-15T02:37:59.577Z,31.90
2023-02-15T02:38:59.572Z,31.50
2023-02-15T02:39:59.577Z,33.10
2023-02-15T02:40:59.529Z,31.70
2023-02-15T02:41:59.516Z,32.30
2023-02-15T02:42:59.508Z,32.30
2023-02-15T02:43:59.488Z,32.20
2023-02-15T02:44:59.487Z,32.00
2023-02-15T02:45:59.632Z,32.10
2023-02-15T02:46:59.455Z,33.10
2023-02-15T02:47:59.461Z,32.10
2023-02-15T02:48:59.442Z,31.70
2023-02-15T02:49:59.425Z,32.10
2023-02-15T02:50:59.408Z,32.60
2023-02-15T02:51:59.388Z,32.30
2023-02-15T02:52:59.380Z,32.70
2023-02-15T02:53:59.371Z,32.70
2023-02-15T02:54:59.365Z,34.20
2023-02-15T02:55:59.605Z,32.40
2023-02-15T02:56:59.334Z,34.50
2023-02-15T02:57:59.307Z,32.70
2023-02-15T02:58:59.297Z,32.50
2023-02-15T02:59:59.298Z,36.00
2023-02-15T03:00:59.286Z,32.20
2023-02-15T03:01:59.301Z,33.80
2023-02-15T03:02:59.318Z,32.50
2023-02-15T03:03:59.218Z,33.70
2023-02-15T03:04:59.279Z,34.00
2023-02-15T03:05:59.457Z,33.70
2023-02-15T03:06:59.198Z,32.30
2023-02-15T03:07:59.160Z,33.50
2023-02-15T03:08:59.156Z,33.10
2023-02-15T03:09:59.158Z,33.00
2023-02-15T03:10:59.141Z,33.00
2023-02-15T03:11:59.129Z,31.70
2023-02-15T03:12:59.107Z,32.90
2023-02-15T03:13:59.240Z,32.50
2023-02-15T03:14:59.101Z,33.10
2023-02-15T03:15:59.252Z,33.30
2023-02-15T03:16:59.080Z,32.50
2023-02-15T03:17:59.046Z,31.30
2023-02-15T03:18:59.090Z,32.10
2023-02-15T03:19:59.052Z,32.40
2023-02-15T03:20:59.001Z,31.70
2023-02-15T03:21:59.012Z,32.00
2023-02-15T03:22:58.972Z,32.30
2023-02-15T03:23:58.975Z,32.20
2023-02-15T03:24:58.959Z,32.90
2023-02-15T03:25:58.956Z,31.70
2023-02-15T03:26:58.926Z,32.00
2023-02-15T03:27:58.906Z,31.90
2023-02-15T03:28:58.914Z,33.50
2023-02-15T03:29:58.973Z,32.50
2023-02-15T03:30:59.005Z,32.80
2023-02-15T03:31:59.045Z,31.30
2023-02-15T03:32:58.843Z,31.70
2023-02-15T03:33:58.829Z,31.20
2023-02-15T03:34:58.867Z,31.90
2023-02-15T03:35:58.946Z,32.40
2023-02-15T03:36:58.808Z,32.00
2023-02-15T03:37:58.764Z,31.40
2023-02-15T03:38:58.778Z,31.60
2023-02-15T03:39:58.780Z,32.20
2023-02-15T03:40:58.735Z,31.10
2023-02-15T03:41:58.737Z,31.10
2023-02-15T03:42:58.716Z,31.00
2023-02-15T03:43:58.700Z,31.00
2023-02-15T03:44:58.714Z,31.10
2023-02-15T03:45:58.694Z,31.40
2023-02-15T03:46:58.699Z,32.10
2023-02-15T03:47:58.664Z,31.30
2023-02-15T03:48:58.623Z,31.80
2023-02-15T03:49:58.626Z,30.80
2023-02-15T03:50:58.612Z,30.90
2023-02-15T03:51:58.598Z,31.30
2023-02-15T03:52:58.615Z,30.30
2023-02-15T03:53:58.563Z,31.90
2023-02-15T03:54:58.596Z,32.10
2023-02-15T03:55:58.533Z,31.00
2023-02-15T03:56:58.513Z,30.80
2023-02-15T03:57:58.516Z,31.00
2023-02-15T03:58:58.509Z,31.50
2023-02-15T03:59:58.507Z,31.10
2023-02-15T04:00:58.543Z,31.60
2023-02-15T04:01:58.444Z,31.60
2023-02-15T04:02:58.521Z,30.80
2023-02-15T04:03:58.439Z,31.10
2023-02-15T04:04:58.423Z,32.50
2023-02-15T04:05:58.393Z,31.80
2023-02-15T04:06:58.393Z,31.10
2023-02-15T04:07:58.368Z,32.00
2023-02-15T04:08:58.370Z,31.00
2023-02-15T04:09:58.385Z,31.60
2023-02-15T04:10:58.382Z,31.10
2023-02-15T04:11:58.314Z,31.50
2023-02-15T04:12:58.302Z,32.00
2023-02-15T04:13:58.302Z,31.70
2023-02-15T04:14:58.317Z,31.80
2023-02-15T04:15:58.312Z,32.30
2023-02-15T04:16:58.259Z,32.30
2023-02-15T04:17:58.252Z,33.20
2023-02-15T04:18:58.231Z,34.00
2023-02-15T04:19:58.223Z,31.90
2023-02-15T04:20:58.226Z,31.30
2023-02-15T04:21:58.185Z,33.70
2023-02-15T04:22:58.170Z,31.80
2023-02-15T04:23:58.167Z,32.30
2023-02-15T04:24:58.171Z,31.80
2023-02-15T04:25:58.141Z,32.10
2023-02-15T04:26:58.139Z,32.50
2023-02-15T04:27:58.101Z,32.10
2023-02-15T04:28:58.089Z,30.80
2023-02-15T04:29:58.182Z,31.60
2023-02-15T04:30:58.122Z,31.00
2023-02-15T04:31:58.096Z,31.80
2023-02-15T04:32:58.048Z,31.70
2023-02-15T04:33:58.021Z,32.10
2023-02-15T04:34:58.017Z,31.40
2023-02-15T04:35:58.013Z,31.80
2023-02-15T04:36:57.999Z,30.80
2023-02-15T04:37:57.960Z,31.00
2023-02-15T04:38:57.950Z,31.60
2023-02-15T04:39:57.945Z,31.30
2023-02-15T04:40:57.937Z,31.50
2023-02-15T04:41:57.925Z,31.20
2023-02-15T04:42:57.923Z,31.80
2023-02-15T04:43:57.879Z,30.70
2023-02-15T04:44:57.901Z,31.00
2023-02-15T04:45:57.930Z,31.90
2023-02-15T04:46:57.846Z,31.10
2023-02-15T04:47:57.846Z,33.10
2023-02-15T04:48:57.832Z,31.80
2023-02-15T04:49:58.245Z,31.40
2023-02-15T04:50:57.804Z,31.20
2023-02-15T04:51:57.821Z,29.60
2023-02-15T04:52:57.795Z,31.30
2023-02-15T04:53:57.784Z,31.40
2023-02-15T04:54:57.764Z,30.60
2023-02-15T04:55:57.717Z,32.50
2023-02-15T04:56:57.717Z,31.80
2023-02-15T04:57:57.701Z,30.70
2023-02-15T04:58:57.687Z,30.30
2023-02-15T04:59:57.693Z,30.80
2023-02-15T05:00:57.739Z,31.80
2023-02-15T05:01:57.657Z,31.00
2023-02-15T05:02:57.675Z,31.80
2023-02-15T05:03:57.643Z,31.30
2023-02-15T05:04:57.631Z,30.70
2023-02-15T05:05:57.588Z,30.40
2023-02-15T05:06:57.606Z,30.50
2023-02-15T05:07:57.580Z,30.60
2023-02-15T05:08:57.569Z,30.70
2023-02-15T05:09:57.648Z,31.80
2023-02-15T05:10:57.537Z,31.40
2023-02-15T05:11:57.536Z,29.90
2023-02-15T05:12:57.521Z,30.20
2023-02-15T05:13:57.491Z,37.10
2023-02-15T05:14:57.510Z,72.30
2023-02-15T05:15:57.456Z,49.90
2023-02-15T05:16:57.496Z,32.70
2023-02-15T05:17:57.430Z,29.90
2023-02-15T05:18:57.426Z,30.00
2023-02-15T05:19:57.427Z,29.80
2023-02-15T05:20:57.418Z,30.50
2023-02-15T05:21:57.394Z,29.40
2023-02-15T05:22:57.394Z,29.60
2023-02-15T05:23:57.382Z,30.40
2023-02-15T05:24:57.338Z,30.50
2023-02-15T05:25:57.349Z,29.50
2023-02-15T05:26:57.332Z,29.80
2023-02-15T05:27:57.293Z,30.60
2023-02-15T05:28:57.322Z,30.20
2023-02-15T05:29:57.417Z,29.30
2023-02-15T05:30:57.459Z,31.20
2023-02-15T05:31:57.325Z,29.30
2023-02-15T05:32:57.225Z,30.10
2023-02-15T05:33:57.243Z,50.60
2023-02-15T05:34:57.228Z,31.40
2023-02-15T05:35:57.214Z,55.40
2023-02-15T05:36:57.187Z,32.90
2023-02-15T05:37:57.180Z,31.10
2023-02-15T05:38:57.150Z,30.60
2023-02-15T05:39:57.174Z,30.10
2023-02-15T05:40:57.123Z,30.10
2023-02-15T05:41:57.114Z,29.80
2023-02-15T05:42:57.119Z,30.70
2023-02-15T05:43:57.116Z,30.30
2023-02-15T05:44:57.175Z,30.30
2023-02-15T05:45:57.098Z,30.50
2023-02-15T05:46:57.059Z,30.60
2023-02-15T05:47:57.055Z,29.30
2023-02-15T05:48:57.036Z,29.60
2023-02-15T05:49:57.056Z,30.70
2023-02-15T05:50:57.005Z,29.30
2023-02-15T05:51:56.979Z,30.10
2023-02-15T05:52:56.968Z,30.60
2023-02-15T05:53:56.959Z,29.90
2023-02-15T05:54:56.967Z,29.70
2023-02-15T05:55:56.946Z,30.80
2023-02-15T05:56:56.923Z,44.50
2023-02-15T05:57:57.022Z,40.80
2023-02-15T05:58:56.887Z,34.90
2023-02-15T05:59:56.916Z,30.60
2023-02-15T06:00:56.856Z,31.20
2023-02-15T06:01:56.846Z,30.50
2023-02-15T06:02:56.857Z,29.90
2023-02-15T06:03:56.813Z,29.40
2023-02-15T06:04:56.869Z,29.60
2023-02-15T06:05:56.786Z,29.20
2023-02-15T06:06:56.781Z,29.30
2023-02-15T06:07:56.790Z,30.40
2023-02-15T06:08:56.792Z,30.40
2023-02-15T06:09:56.757Z,43.60
2023-02-15T06:10:56.748Z,29.40
2023-02-15T06:11:56.804Z,29.50
2023-02-15T06:12:56.700Z,30.50
2023-02-15T06:13:56.690Z,30.10
2023-02-15T06:14:56.694Z,29.40
2023-02-15T06:15:56.727Z,29.10
2023-02-15T06:16:56.647Z,29.60
2023-02-15T06:17:56.648Z,30.70
2023-02-15T06:18:56.637Z,28.90
2023-02-15T06:19:56.630Z,30.00
2023-02-15T06:20:56.589Z,28.70
2023-02-15T06:21:56.585Z,29.50
2023-02-15T06:22:56.579Z,29.90
2023-02-15T06:23:56.567Z,29.00
2023-02-15T06:24:56.580Z,30.00
2023-02-15T06:25:56.567Z,29.90
2023-02-15T06:26:56.529Z,29.10
2023-02-15T06:27:56.511Z,30.20
2023-02-15T06:28:56.492Z,33.70
2023-02-15T06:29:56.579Z,32.70
2023-02-15T06:30:56.546Z,30.20
2023-02-15T06:31:56.579Z,29.60
2023-02-15T06:32:56.439Z,29.70
2023-02-15T06:33:56.430Z,29.00
2023-02-15T06:34:56.430Z,29.30
2023-02-15T06:35:56.419Z,29.30
2023-02-15T06:36:56.391Z,30.10
2023-02-15T06:37:56.368Z,30.00
2023-02-15T06:38:56.380Z,30.50
2023-02-15T06:39:56.405Z,30.00
2023-02-15T06:40:56.327Z,29.50
2023-02-15T06:41:56.339Z,29.90
2023-02-15T06:42:56.298Z,29.80
2023-02-15T06:43:56.301Z,30.50
2023-02-15T06:44:56.291Z,29.70
2023-02-15T06:45:56.298Z,29.90
2023-02-15T06:46:56.278Z,29.50
2023-02-15T06:47:56.277Z,77.00
2023-02-15T06:48:56.229Z,70.50
2023-02-15T06:49:56.224Z,32.20
2023-02-15T06:50:56.222Z,29.90
2023-02-15T06:51:56.206Z,29.70
2023-02-15T06:52:56.158Z,29.40
2023-02-15T06:53:56.157Z,29.40
2023-02-15T06:54:56.159Z,28.90
2023-02-15T06:55:56.137Z,28.20
2023-02-15T06:56:56.108Z,28.40
2023-02-15T06:57:56.106Z,29.20
2023-02-15T06:58:56.101Z,28.90
2023-02-15T06:59:56.119Z,28.20
2023-02-15T07:00:56.075Z,28.20
2023-02-15T07:01:56.194Z,28.40
2023-02-15T07:02:56.053Z,28.70
2023-02-15T07:03:56.030Z,29.10
2023-02-15T07:04:56.094Z,28.70
2023-02-15T07:05:56.023Z,30.00
2023-02-15T07:06:55.977Z,29.20
2023-02-15T07:07:56.001Z,27.60
2023-02-15T07:08:55.942Z,30.30
2023-02-15T07:09:55.957Z,28.60
2023-02-15T07:10:55.945Z,29.20
2023-02-15T07:11:56.025Z,29.20
2023-02-15T07:12:55.897Z,28.50
2023-02-15T07:13:55.887Z,27.80
2023-02-15T07:14:55.897Z,28.30
2023-02-15T07:15:55.898Z,28.30
2023-02-15T07:16:55.830Z,29.20
2023-02-15T07:17:55.855Z,29.00
2023-02-15T07:18:55.825Z,27.70
2023-02-15T07:19:55.819Z,27.10
2023-02-15T07:20:55.782Z,29.00
2023-02-15T07:21:55.804Z,28.20
2023-02-15T07:22:55.761Z,28.40
2023-02-15T07:23:55.770Z,28.40
2023-02-15T07:24:55.805Z,27.80
2023-02-15T07:25:55.719Z,27.60
2023-02-15T07:26:55.727Z,28.80
2023-02-15T07:27:55.720Z,28.00
2023-02-15T07:28:55.677Z,28.40
2023-02-15T07:29:55.769Z,27.80
2023-02-15T07:30:55.706Z,27.50
2023-02-15T07:31:55.654Z,27.50
2023-02-15T07:32:55.631Z,28.20
2023-02-15T07:33:55.622Z,27.70
2023-02-15T07:34:55.652Z,27.30
2023-02-15T07:35:55.598Z,27.90
2023-02-15T07:36:55.570Z,28.00
2023-02-15T07:37:55.578Z,27.90
2023-02-15T07:38:55.554Z,27.30
2023-02-15T07:39:55.582Z,28.00
2023-02-15T07:40:55.522Z,27.40
2023-02-15T07:41:55.518Z,27.50
2023-02-15T07:42:55.622Z,27.50
2023-02-15T07:43:55.500Z,26.10
2023-02-15T07:44:55.531Z,26.60
2023-02-15T07:45:55.454Z,27.70
2023-02-15T07:46:55.509Z,26.60
2023-02-15T07:47:55.436Z,26.10
2023-02-15T07:48:55.427Z,27.00
2023-02-15T07:49:55.440Z,27.20
2023-02-15T07:50:55.400Z,26.80
2023-02-15T07:51:55.379Z,26.60
2023-02-15T07:52:55.355Z,26.70
2023-02-15T07:53:55.362Z,27.10
2023-02-15T07:54:55.362Z,25.90
2023-02-15T07:55:55.354Z,26.80
2023-02-15T07:56:55.301Z,25.70
2023-02-15T07:57:55.315Z,26.10
2023-02-15T07:58:55.295Z,26.40
2023-02-15T07:59:55.293Z,25.40
2023-02-15T08:00:55.256Z,25.10
2023-02-15T08:01:55.254Z,25.70
2023-02-15T08:02:55.244Z,24.70
2023-02-15T08:03:55.320Z,25.40
2023-02-15T08:04:55.210Z,25.50
2023-02-15T08:05:55.180Z,25.20
2023-02-15T08:06:55.173Z,25.10
2023-02-15T08:07:55.205Z,25.70
2023-02-15T08:08:55.139Z,24.90
2023-02-15T08:09:55.149Z,24.30
2023-02-15T08:10:55.149Z,25.00
2023-02-15T08:11:55.111Z,24.70
2023-02-15T08:12:55.081Z,24.70
2023-02-15T08:13:55.101Z,24.10
2023-02-15T08:14:55.084Z,23.10
2023-02-15T08:15:55.213Z,24.30
2023-02-15T08:16:55.087Z,24.00
2023-02-15T08:17:55.049Z,23.70
2023-02-15T08:18:55.014Z,23.30
2023-02-15T08:19:55.044Z,23.60
2023-02-15T08:20:54.984Z,24.30
2023-02-15T08:21:55.009Z,24.00
2023-02-15T08:22:54.965Z,24.30
2023-02-15T08:23:54.947Z,24.40
2023-02-15T08:24:54.954Z,22.90
2023-02-15T08:25:54.928Z,23.60
2023-02-15T08:26:54.906Z,23.40
2023-02-15T08:27:54.897Z,23.30
2023-02-15T08:28:54.901Z,22.50
2023-02-15T08:29:54.914Z,22.90
2023-02-15T08:30:54.877Z,22.30
2023-02-15T08:31:54.929Z,23.50
2023-02-15T08:32:54.826Z,23.00
2023-02-15T08:33:54.818Z,22.70
2023-02-15T08:34:54.820Z,22.70
2023-02-15T08:35:54.793Z,22.40
2023-02-15T08:36:54.789Z,23.40
2023-02-15T08:37:54.761Z,22.00
2023-02-15T08:38:54.760Z,21.90
2023-02-15T08:39:54.775Z,21.80
2023-02-15T08:40:54.745Z,23.20
2023-02-15T08:41:54.710Z,22.70
2023-02-15T08:42:54.708Z,22.20
2023-02-15T08:43:54.698Z,21.50
2023-02-15T08:44:54.689Z,20.90
2023-02-15T08:45:54.791Z,21.00
2023-02-15T08:46:54.652Z,22.40
2023-02-15T08:47:54.674Z,21.80
2023-02-15T08:48:54.622Z,22.60
2023-02-15T08:49:54.766Z,22.10
2023-02-15T08:50:54.587Z,22.50
2023-02-15T08:51:54.570Z,21.90
2023-02-15T08:52:54.560Z,22.20
2023-02-15T08:53:54.575Z,21.80
2023-02-15T08:54:54.542Z,22.20
2023-02-15T08:55:54.535Z,21.90
2023-02-15T08:56:54.501Z,21.10
2023-02-15T08:57:54.517Z,21.80
2023-02-15T08:58:54.485Z,22.50
2023-02-15T08:59:54.523Z,21.70
2023-02-15T09:00:54.600Z,21.80
2023-02-15T09:01:54.532Z,21.90
2023-02-15T09:02:54.463Z,21.30
2023-02-15T09:03:54.437Z,21.40
2023-02-15T09:04:54.437Z,21.50
2023-02-15T09:05:54.388Z,22.00
2023-02-15T09:06:54.377Z,21.60
2023-02-15T09:07:54.361Z,21.50
2023-02-15T09:08:54.336Z,21.10
2023-02-15T09:09:54.357Z,21.50
2023-02-15T09:10:54.350Z,21.60
2023-02-15T09:11:59.254Z,22.40
2023-02-15T09:12:55.320Z,21.50
2023-02-15T09:13:54.284Z,21.50
2023-02-15T09:14:54.280Z,22.10
2023-02-15T09:15:54.259Z,21.00
2023-02-15T09:16:54.359Z,22.00
2023-02-15T09:17:54.249Z,21.40
2023-02-15T09:18:54.239Z,22.00
2023-02-15T09:19:54.245Z,21.60
2023-02-15T09:20:54.191Z,21.90
2023-02-15T09:21:54.193Z,21.50
2023-02-15T09:22:57.249Z,21.90
2023-02-15T09:23:54.147Z,21.20
2023-02-15T09:24:54.140Z,21.80
2023-02-15T09:25:54.157Z,21.50
2023-02-15T09:26:54.105Z,21.30
2023-02-15T09:27:54.088Z,21.40
2023-02-15T09:28:54.101Z,21.00
2023-02-15T09:29:54.117Z,21.50
2023-02-15T09:30:54.079Z,20.80
2023-02-15T09:31:54.099Z,21.80
2023-02-15T09:32:54.014Z,20.30
2023-02-15T09:33:54.013Z,20.90
2023-02-15T09:34:54.015Z,20.90
2023-02-15T09:35:53.985Z,20.30
2023-02-15T09:36:53.966Z,21.00
2023-02-15T09:37:53.959Z,20.40
2023-02-15T09:38:53.951Z,21.00
2023-02-15T09:39:53.943Z,20.30
2023-02-15T09:40:53.924Z,20.70
2023-02-15T09:41:53.914Z,20.00
2023-02-15T09:42:53.914Z,19.90
2023-02-15T09:43:53.885Z,19.70
2023-02-15T09:44:53.879Z,19.20
2023-02-15T09:45:53.864Z,19.90
2023-02-15T09:46:53.857Z,20.10
2023-02-15T09:47:53.827Z,19.30
2023-02-15T09:48:53.816Z,19.30
2023-02-15T09:49:53.819Z,19.30
2023-02-15T09:50:53.814Z,19.20
2023-02-15T09:51:53.776Z,19.50
2023-02-15T09:52:53.756Z,19.10
2023-02-15T09:53:53.747Z,20.20
2023-02-15T09:54:53.749Z,18.50
2023-02-15T09:55:53.727Z,18.50
2023-02-15T09:56:53.727Z,18.50
2023-02-15T09:57:53.710Z,18.70
2023-02-15T09:58:53.687Z,17.80
2023-02-15T09:59:53.687Z,18.60
2023-02-15T10:00:53.714Z,18.40
2023-02-15T10:01:53.645Z,18.30
2023-02-15T10:02:53.629Z,18.70
2023-02-15T10:03:53.620Z,19.20
2023-02-15T10:04:53.696Z,18.20
2023-02-15T10:05:53.589Z,18.40
2023-02-15T10:06:53.589Z,17.30
2023-02-15T10:07:53.562Z,17.60
2023-02-15T10:08:53.552Z,17.70
2023-02-15T10:09:53.550Z,18.60
2023-02-15T10:10:53.542Z,17.10
2023-02-15T10:11:53.510Z,17.80
2023-02-15T10:12:53.522Z,17.70
2023-02-15T10:13:53.481Z,17.60
2023-02-15T10:14:53.507Z,17.20
2023-02-15T10:15:53.467Z,16.80
2023-02-15T10:16:53.489Z,17.00
2023-02-15T10:17:53.434Z,17.30
2023-02-15T10:18:53.423Z,17.50
2023-02-15T10:19:53.427Z,16.90
2023-02-15T10:20:53.405Z,17.30
2023-02-15T10:21:53.383Z,17.60
2023-02-15T10:22:53.372Z,17.40
2023-02-15T10:23:53.353Z,17.40
2023-02-15T10:24:53.362Z,17.50
2023-02-15T10:25:53.391Z,18.00
2023-02-15T10:26:53.339Z,17.00
2023-02-15T10:27:53.304Z,16.70
2023-02-15T10:28:53.300Z,17.60
2023-02-15T10:29:53.296Z,16.80
2023-02-15T10:30:53.320Z,17.60
2023-02-15T10:31:53.397Z,17.70
2023-02-15T10:32:53.235Z,17.20
2023-02-15T10:33:53.222Z,17.10
2023-02-15T10:34:53.224Z,17.00
2023-02-15T10:35:53.986Z,17.40
2023-02-15T10:36:53.182Z,18.00
2023-02-15T10:37:53.167Z,16.70
2023-02-15T10:38:53.163Z,16.80
2023-02-15T10:39:53.164Z,16.80
2023-02-15T10:40:53.139Z,18.00
2023-02-15T10:41:53.117Z,17.00
2023-02-15T10:42:53.115Z,17.20
2023-02-15T10:43:53.084Z,17.10
2023-02-15T10:44:53.087Z,16.50
2023-02-15T10:45:53.077Z,17.20
2023-02-15T10:46:53.053Z,17.10
2023-02-15T10:47:53.033Z,17.00
2023-02-15T10:48:53.023Z,16.30
2023-02-15T10:49:53.024Z,17.60
2023-02-15T10:50:53.005Z,17.40
2023-02-15T10:51:52.986Z,16.70
2023-02-15T10:52:52.994Z,17.20
2023-02-15T10:53:52.955Z,17.70
2023-02-15T10:54:52.972Z,16.60
2023-02-15T10:55:52.928Z,17.20
2023-02-15T10:56:52.922Z,17.20
2023-02-15T10:57:52.905Z,17.20
2023-02-15T10:58:52.913Z,16.50
2023-02-15T10:59:52.893Z,17.20
2023-02-15T11:00:52.872Z,17.30
2023-02-15T11:01:52.868Z,16.60
2023-02-15T11:02:52.844Z,17.00
2023-02-15T11:03:52.837Z,16.80
2023-02-15T11:04:52.891Z,16.80
2023-02-15T11:05:52.805Z,17.20
2023-02-15T11:06:52.785Z,16.80
2023-02-15T11:07:52.763Z,17.30
2023-02-15T11:08:52.768Z,17.40
2023-02-15T11:09:52.764Z,17.10
2023-02-15T11:10:52.742Z,16.60
2023-02-15T11:11:52.715Z,16.10
2023-02-15T11:12:52.727Z,17.00
2023-02-15T11:13:52.687Z,17.10
2023-02-15T11:14:52.701Z,17.10
2023-02-15T11:15:52.754Z,16.80
2023-02-15T11:16:52.667Z,16.20
2023-02-15T11:17:52.643Z,17.50
2023-02-15T11:18:52.648Z,16.70
2023-02-15T11:19:52.627Z,16.40
2023-02-15T11:20:52.595Z,16.90
2023-02-15T11:21:52.586Z,17.00
2023-02-15T11:22:52.579Z,16.80
2023-02-15T11:23:52.560Z,16.10
2023-02-15T11:24:52.567Z,16.40
2023-02-15T11:25:52.535Z,15.30
2023-02-15T11:26:52.519Z,16.20
2023-02-15T11:27:52.498Z,15.30
2023-02-15T11:28:52.511Z,16.40
2023-02-15T11:29:52.520Z,15.80
2023-02-15T11:30:52.591Z,15.40
2023-02-15T11:31:52.538Z,15.00
2023-02-15T11:32:52.438Z,15.40
2023-02-15T11:33:52.433Z,16.00
2023-02-15T11:34:52.426Z,15.70
2023-02-15T11:35:52.397Z,15.40
2023-02-15T11:36:52.390Z,15.50
2023-02-15T11:37:52.373Z,15.30
2023-02-15T11:38:52.365Z,16.10
2023-02-15T11:39:52.361Z,15.80
2023-02-15T11:40:52.328Z,16.80
2023-02-15T11:41:52.317Z,15.70
2023-02-15T11:42:52.320Z,15.40
2023-02-15T11:43:52.293Z,15.20
2023-02-15T11:44:52.277Z,15.10
2023-02-15T11:45:52.269Z,14.60
2023-02-15T11:46:52.300Z,15.10
2023-02-15T11:47:52.238Z,15.10
2023-02-15T11:48:52.220Z,15.50
2023-02-15T11:49:52.201Z,15.10
2023-02-15T11:50:52.210Z,16.30
2023-02-15T11:51:52.181Z,14.80
2023-02-15T11:52:52.172Z,15.00
2023-02-15T11:53:52.150Z,14.70
2023-02-15T11:54:52.174Z,15.30
2023-02-15T11:55:52.164Z,14.70
2023-02-15T11:56:52.111Z,15.70
2023-02-15T11:57:52.111Z,14.60
2023-02-15T11:58:52.095Z,15.20
2023-02-15T11:59:52.074Z,14.80
2023-02-15T12:00:52.082Z,14.60
2023-02-15T12:01:52.048Z,15.00
2023-02-15T12:02:52.097Z,14.60
2023-02-15T12:03:52.100Z,14.40
2023-02-15T12:04:52.019Z,14.50
2023-02-15T12:05:52.005Z,14.80
2023-02-15T12:06:51.984Z,14.80
2023-02-15T12:07:51.966Z,14.40
2023-02-15T12:08:51.955Z,14.30
2023-02-15T12:09:51.939Z,15.50
2023-02-15T12:10:51.945Z,14.60
2023-02-15T12:11:51.921Z,14.30
2023-02-15T12:12:51.906Z,14.50
2023-02-15T12:13:51.892Z,15.10
2023-02-15T12:14:51.879Z,15.30
2023-02-15T12:15:51.902Z,14.50
2023-02-15T12:16:51.849Z,14.90
2023-02-15T12:17:51.838Z,14.70
2023-02-15T12:18:51.833Z,15.20
2023-02-15T12:19:51.808Z,14.20
2023-02-15T12:20:51.809Z,14.50
2023-02-15T12:21:51.779Z,14.00
2023-02-15T12:22:51.777Z,15.00
2023-02-15T12:23:51.761Z,14.30
2023-02-15T12:24:51.750Z,15.10
2023-02-15T12:25:51.749Z,14.60
2023-02-15T12:26:51.724Z,14.60
2023-02-15T12:27:51.706Z,14.60
2023-02-15T12:28:51.693Z,14.30
2023-02-15T12:29:51.763Z,14.70
2023-02-15T12:30:51.710Z,14.10
2023-02-15T12:31:51.758Z,14.30
2023-02-15T12:32:51.646Z,14.40
2023-02-15T12:33:51.628Z,14.00
2023-02-15T12:34:51.624Z,14.50
2023-02-15T12:35:51.614Z,14.30
2023-02-15T12:36:51.604Z,13.30
2023-02-15T12:37:51.577Z,14.40
2023-02-15T12:38:51.565Z,12.90
2023-02-15T12:39:51.546Z,14.00
2023-02-15T12:40:51.556Z,13.50
2023-02-15T12:41:51.517Z,14.10
2023-02-15T12:42:51.510Z,14.10
2023-02-15T12:43:51.498Z,13.70
2023-02-15T12:44:51.489Z,13.20
2023-02-15T12:45:51.478Z,13.40
2023-02-15T12:46:51.518Z,13.30
2023-02-15T12:47:51.440Z,13.40
2023-02-15T12:48:51.445Z,13.80
2023-02-15T12:49:51.420Z,14.20
2023-02-15T12:50:54.953Z,14.10
2023-02-15T12:51:51.395Z,13.80
2023-02-15T12:52:51.385Z,13.90
2023-02-15T12:53:51.574Z,13.90
2023-02-15T12:54:51.353Z,14.50